Accueil
METAR-TAF:

METAR-TAF

Aéroports :

Aéroport de Londres-Heathrow

Londres-Heathrow, Angleterre

latitude: 51-29N, longitude: 000-27W, altitude: 24 m

Observation

Le bulletin a été fait il y a 41 minutes, à 04:50 UTC
Vent 2 kt de direction variable
Température 15°C
Humidité 67%
Pression 1036 hPa
Visibilité 10 km ou plus

METAR: EGLL 270450Z AUTO VRB02KT 9999 NCD 15/09 Q1036 NOSIG

Heure: 06:31 (05:31 UTC)

Prévision

Le bulletin a été fait il y a 6 heures et 39 minutes, à 22:52 UTC
Prévision valable du 27 à 00 UTC au 28 à 06 UTC
Vent 4 kt de nord/nord-est
Visibilité 10 km ou plus
Quelques nuages à une hauteur de 4500 ft

TAF: EGLL 262252Z 2700/2806 03004KT 9999 FEW045

Observations et prévisions météorologiques de plus de 4000 aéroports (messages METAR et TAF).

Les stations disponibles sont représentées par des disques jaunes et rouges sur la carte.

Passer la souris dessus pour voir le nom de la station.

Cliquer dessus pour voir les observations et prévisions météorologiques.

Pour changer de carte: cliquez sur les boutons verts avec une croix noire pour zoomer, sur le bouton vert avec un tiret pour effectuer un zoom arrière, ou sur les flèches vertes pour les cartes adjacentes.


METAR-TAF: